sensor_id;sensor_type;location;lat;lon;timestamp;pressure;altitude;pressure_sealevel;temperature;humidity
56514;BME280;62152;52.078;8.414;2022-08-19T00:00:30;99931.81;;;24.36;54.13
56514;BME280;62152;52.078;8.414;2022-08-19T00:02:15;99933.78;;;24.35;54.01
56514;BME280;62152;52.078;8.414;2022-08-19T00:04:03;99933.00;;;24.35;54.13
56514;BME280;62152;52.078;8.414;2022-08-19T00:05:47;99942.53;;;24.34;54.20
56514;BME280;62152;52.078;8.414;2022-08-19T00:07:32;99943.31;;;24.34;54.16
56514;BME280;62152;52.078;8.414;2022-08-19T00:09:20;99931.44;;;24.34;53.92
56514;BME280;62152;52.078;8.414;2022-08-19T00:11:07;99932.22;;;24.34;54.16
56514;BME280;62152;52.078;8.414;2022-08-19T00:12:52;99938.56;;;24.35;54.15
56514;BME280;62152;52.078;8.414;2022-08-19T00:14:40;99936.19;;;24.33;54.10
56514;BME280;62152;52.078;8.414;2022-08-19T00:16:27;99939.75;;;24.34;53.99
56514;BME280;62152;52.078;8.414;2022-08-19T00:18:12;99937.38;;;24.32;54.00
56514;BME280;62152;52.078;8.414;2022-08-19T00:19:57;99925.91;;;24.34;54.13
56514;BME280;62152;52.078;8.414;2022-08-19T00:21:43;99926.28;;;24.32;54.02
56514;BME280;62152;52.078;8.414;2022-08-19T00:23:28;99931.06;;;24.32;54.05
56514;BME280;62152;52.078;8.414;2022-08-19T00:25:16;99931.06;;;24.32;54.22
56514;BME280;62152;52.078;8.414;2022-08-19T00:27:01;99938.59;;;24.31;54.21
56514;BME280;62152;52.078;8.414;2022-08-19T00:28:47;99937.81;;;24.31;54.24
56514;BME280;62152;52.078;8.414;2022-08-19T00:30:31;99940.56;;;24.31;53.84
56514;BME280;62152;52.078;8.414;2022-08-19T00:32:17;99937.03;;;24.30;54.25
56514;BME280;62152;52.078;8.414;2022-08-19T00:34:02;99943.34;;;24.31;54.31
56514;BME280;62152;52.078;8.414;2022-08-19T00:35:47;99939.78;;;24.30;54.36
56514;BME280;62152;52.078;8.414;2022-08-19T00:37:33;99939.78;;;24.30;54.17
56514;BME280;62152;52.078;8.414;2022-08-19T00:39:18;99933.47;;;24.29;54.08
56514;BME280;62152;52.078;8.414;2022-08-19T00:41:04;99922.75;;;24.28;54.21
56514;BME280;62152;52.078;8.414;2022-08-19T00:42:50;99920.00;;;24.28;54.17
56514;BME280;62152;52.078;8.414;2022-08-19T00:44:35;99927.91;;;24.29;54.24
56514;BME280;62152;52.078;8.414;2022-08-19T00:46:23;99924.34;;;24.29;53.99
56514;BME280;62152;52.078;8.414;2022-08-19T00:48:08;99922.38;;;24.29;54.17
56514;BME280;62152;52.078;8.414;2022-08-19T00:49:56;99913.25;;;24.29;54.08
56514;BME280;62152;52.078;8.414;2022-08-19T00:51:46;99910.91;;;24.27;54.06
56514;BME280;62152;52.078;8.414;2022-08-19T00:53:34;99912.47;;;24.28;54.33
56514;BME280;62152;52.078;8.414;2022-08-19T00:55:23;99902.59;;;24.27;54.05
56514;BME280;62152;52.078;8.414;2022-08-19T00:57:14;99897.81;;;24.28;54.05
56514;BME280;62152;52.078;8.414;2022-08-19T00:59:04;99901.38;;;24.28;54.26
56514;BME280;62152;52.078;8.414;2022-08-19T01:00:51;99899.81;;;24.27;54.07
56514;BME280;62152;52.078;8.414;2022-08-19T01:02:39;99902.22;;;24.25;54.15
56514;BME280;62152;52.078;8.414;2022-08-19T01:04:25;99898.25;;;24.26;54.04
56514;BME280;62152;52.078;8.414;2022-08-19T01:06:10;99901.44;;;24.25;54.04
56514;BME280;62152;52.078;8.414;2022-08-19T01:07:59;99901.03;;;24.26;54.26
56514;BME280;62152;52.078;8.414;2022-08-19T01:09:46;99900.22;;;24.26;53.98
56514;BME280;62152;52.078;8.414;2022-08-19T01:11:36;99896.25;;;24.27;54.18
56514;BME280;62152;52.078;8.414;2022-08-19T01:13:25;99899.03;;;24.27;54.40
56514;BME280;62152;52.078;8.414;2022-08-19T01:15:17;99902.22;;;24.25;54.15
56514;BME280;62152;52.078;8.414;2022-08-19T01:17:07;99903.78;;;24.26;54.17
56514;BME280;62152;52.078;8.414;2022-08-19T01:18:56;99898.66;;;24.25;54.23
56514;BME280;62152;52.078;8.414;2022-08-19T01:20:42;99897.03;;;24.27;54.35
56514;BME280;62152;52.078;8.414;2022-08-19T01:22:34;99897.47;;;24.26;54.05
56514;BME280;62152;52.078;8.414;2022-08-19T01:24:27;99892.34;;;24.24;54.01
56514;BME280;62152;52.078;8.414;2022-08-19T01:26:15;99896.69;;;24.25;54.25
56514;BME280;62152;52.078;8.414;2022-08-19T01:28:03;99894.34;;;24.24;54.39
56514;BME280;62152;52.078;8.414;2022-08-19T01:29:48;99895.13;;;24.24;54.15
56514;BME280;62152;52.078;8.414;2022-08-19T01:31:33;99895.13;;;24.24;54.20
56514;BME280;62152;52.078;8.414;2022-08-19T01:33:21;99891.94;;;24.22;54.08
56514;BME280;62152;52.078;8.414;2022-08-19T01:35:08;99888.00;;;24.23;54.48
56514;BME280;62152;52.078;8.414;2022-08-19T01:36:50;99891.94;;;24.22;54.18
56514;BME280;62152;52.078;8.414;2022-08-19T01:38:41;99892.78;;;24.23;54.15
56514;BME280;62152;52.078;8.414;2022-08-19T01:40:30;99883.28;;;24.20;54.15
56514;BME280;62152;52.078;8.414;2022-08-19T01:42:17;99884.84;;;24.21;54.18
56514;BME280;62152;52.078;8.414;2022-08-19T01:44:05;99879.31;;;24.21;54.19
56514;BME280;62152;52.078;8.414;2022-08-19T01:45:51;99873.75;;;24.21;54.16
56514;BME280;62152;52.078;8.414;2022-08-19T01:47:37;99871.41;;;24.20;54.22
56514;BME280;62152;52.078;8.414;2022-08-19T01:49:23;99863.88;;;24.20;54.30
56514;BME280;62152;52.078;8.414;2022-08-19T01:51:11;99855.56;;;24.20;53.95
56514;BME280;62152;52.078;8.414;2022-08-19T01:52:56;99844.13;;;24.18;53.98
56514;BME280;62152;52.078;8.414;2022-08-19T01:54:45;99858.75;;;24.19;53.85
56514;BME280;62152;52.078;8.414;2022-08-19T01:56:30;99857.97;;;24.18;54.07
56514;BME280;62152;52.078;8.414;2022-08-19T01:58:18;99851.22;;;24.19;54.12
56514;BME280;62152;52.078;8.414;2022-08-19T02:00:12;99849.66;;;24.18;53.92
56514;BME280;62152;52.078;8.414;2022-08-19T02:01:59;99849.66;;;24.18;53.98
56514;BME280;62152;52.078;8.414;2022-08-19T02:03:45;99838.59;;;24.18;54.02
56514;BME280;62152;52.078;8.414;2022-08-19T02:05:30;99835.81;;;24.18;53.91
56514;BME280;62152;52.078;8.414;2022-08-19T02:07:15;99846.13;;;24.18;53.82
56514;BME280;62152;52.078;8.414;2022-08-19T02:09:05;99834.25;;;24.17;54.00
56514;BME280;62152;52.078;8.414;2022-08-19T02:10:53;99839.41;;;24.15;53.92
56514;BME280;62152;52.078;8.414;2022-08-19T02:12:38;99842.97;;;24.16;54.13
56514;BME280;62152;52.078;8.414;2022-08-19T02:14:24;99843.78;;;24.13;54.03
56514;BME280;62152;52.078;8.414;2022-08-19T02:16:09;99837.84;;;24.14;54.09
56514;BME280;62152;52.078;8.414;2022-08-19T02:17:54;99832.72;;;24.13;54.11
56514;BME280;62152;52.078;8.414;2022-08-19T02:19:40;99835.06;;;24.14;54.16
56514;BME280;62152;52.078;8.414;2022-08-19T02:21:25;99840.59;;;24.14;53.95
56514;BME280;62152;52.078;8.414;2022-08-19T02:23:11;99835.84;;;24.15;53.86
56514;BME280;62152;52.078;8.414;2022-08-19T02:24:58;99841.00;;;24.16;54.03
56514;BME280;62152;52.078;8.414;2022-08-19T02:26:46;99835.44;;;24.16;53.94
56514;BME280;62152;52.078;8.414;2022-08-19T02:28:31;99831.09;;;24.15;53.94
56514;BME280;62152;52.078;8.414;2022-08-19T02:30:17;99831.09;;;24.15;54.00
56514;BME280;62152;52.078;8.414;2022-08-19T02:32:03;99828.75;;;24.14;54.02
56514;BME280;62152;52.078;8.414;2022-08-19T02:33:49;99835.84;;;24.15;53.92
56514;BME280;62152;52.078;8.414;2022-08-19T02:35:34;99841.38;;;24.15;53.80
56514;BME280;62152;52.078;8.414;2022-08-19T02:37:19;99829.53;;;24.14;53.99
56514;BME280;62152;52.078;8.414;2022-08-19T02:39:17;99835.06;;;24.14;53.90
56514;BME280;62152;52.078;8.414;2022-08-19T02:41:06;99844.94;;;24.15;53.92
56514;BME280;62152;52.078;8.414;2022-08-19T02:42:55;99844.16;;;24.15;53.91
56514;BME280;62152;52.078;8.414;2022-08-19T02:44:41;99846.16;;;24.14;53.94
56514;BME280;62152;52.078;8.414;2022-08-19T02:46:29;99847.72;;;24.15;53.98
56514;BME280;62152;52.078;8.414;2022-08-19T02:48:16;99849.69;;;24.15;53.83
56514;BME280;62152;52.078;8.414;2022-08-19T02:50:02;99844.16;;;24.15;53.77
56514;BME280;62152;52.078;8.414;2022-08-19T02:51:47;99839.81;;;24.14;53.85
56514;BME280;62152;52.078;8.414;2022-08-19T02:53:32;99834.28;;;24.14;53.84
56514;BME280;62152;52.078;8.414;2022-08-19T02:55:17;99846.16;;;24.14;53.96
56514;BME280;62152;52.078;8.414;2022-08-19T02:57:03;99835.06;;;24.14;53.95
56514;BME280;62152;52.078;8.414;2022-08-19T02:58:52;99830.72;;;24.13;53.82
56514;BME280;62152;52.078;8.414;2022-08-19T03:00:42;99833.50;;;24.13;53.85
56514;BME280;62152;52.078;8.414;2022-08-19T03:02:25;99832.72;;;24.13;53.85
56514;BME280;62152;52.078;8.414;2022-08-19T03:04:14;99841.03;;;24.13;53.85
56514;BME280;62152;52.078;8.414;2022-08-19T03:06:07;99837.47;;;24.12;53.80
56514;BME280;62152;52.078;8.414;2022-08-19T03:07:54;99834.69;;;24.12;54.02
56514;BME280;62152;52.078;8.414;2022-08-19T03:09:39;99855.66;;;24.13;53.76
56514;BME280;62152;52.078;8.414;2022-08-19T03:11:27;99849.34;;;24.13;53.78
56514;BME280;62152;52.078;8.414;2022-08-19T03:13:17;99856.09;;;24.12;53.86
56514;BME280;62152;52.078;8.414;2022-08-19T03:15:06;99862.41;;;24.12;54.03
56514;BME280;62152;52.078;8.414;2022-08-19T03:16:52;99863.63;;;24.11;53.91
56514;BME280;62152;52.078;8.414;2022-08-19T03:18:38;99862.81;;;24.11;53.98
56514;BME280;62152;52.078;8.414;2022-08-19T03:20:23;99872.72;;;24.12;53.92
56514;BME280;62152;52.078;8.414;2022-08-19T03:22:09;99867.16;;;24.12;53.95
56514;BME280;62152;52.078;8.414;2022-08-19T03:23:56;99863.66;;;24.08;53.79
56514;BME280;62152;52.078;8.414;2022-08-19T03:25:45;99857.31;;;24.07;54.05
56514;BME280;62152;52.078;8.414;2022-08-19T03:27:32;99849.00;;;24.07;53.80
56514;BME280;62152;52.078;8.414;2022-08-19T03:29:18;99857.75;;;24.06;53.81
56514;BME280;62152;52.078;8.414;2022-08-19T03:31:11;99849.44;;;24.06;53.78
56514;BME280;62152;52.078;8.414;2022-08-19T03:32:57;99848.78;;;23.94;53.66
56514;BME280;62152;52.078;8.414;2022-08-19T03:34:42;99864.78;;;23.80;53.88
56514;BME280;62152;52.078;8.414;2022-08-19T03:36:27;99864.84;;;23.72;53.39
56514;BME280;62152;52.078;8.414;2022-08-19T03:38:12;99873.59;;;23.67;53.29
56514;BME280;62152;52.078;8.414;2022-08-19T03:39:57;99865.78;;;23.62;53.18
56514;BME280;62152;52.078;8.414;2022-08-19T03:41:47;99870.88;;;23.60;53.25
56514;BME280;62152;52.078;8.414;2022-08-19T03:43:34;99868.19;;;23.53;53.16
56514;BME280;62152;52.078;8.414;2022-08-19T03:45:18;99865.47;;;23.50;53.24
56514;BME280;62152;52.078;8.414;2022-08-19T03:47:06;99862.72;;;23.46;53.23
56514;BME280;62152;52.078;8.414;2022-08-19T03:48:51;99862.34;;;23.44;53.48
56514;BME280;62152;52.078;8.414;2022-08-19T03:50:38;99868.72;;;23.41;53.46
56514;BME280;62152;52.078;8.414;2022-08-19T03:52:23;99866.69;;;23.45;53.35
56514;BME280;62152;52.078;8.414;2022-08-19T03:54:11;99869.03;;;23.46;53.22
56514;BME280;62152;52.078;8.414;2022-08-19T03:55:58;99860.34;;;23.48;53.30
56514;BME280;62152;52.078;8.414;2022-08-19T03:57:44;99868.22;;;23.50;53.33
56514;BME280;62152;52.078;8.414;2022-08-19T03:59:33;99877.81;;;23.41;53.29
56514;BME280;62152;52.078;8.414;2022-08-19T04:01:22;99877.47;;;23.36;53.36
56514;BME280;62152;52.078;8.414;2022-08-19T04:03:13;99881.00;;;23.36;53.17
56514;BME280;62152;52.078;8.414;2022-08-19T04:04:58;99883.41;;;23.34;53.28
56514;BME280;62152;52.078;8.414;2022-08-19T04:06:43;99878.69;;;23.31;53.46
56514;BME280;62152;52.078;8.414;2022-08-19T04:08:28;99884.28;;;23.24;53.50
56514;BME280;62152;52.078;8.414;2022-08-19T04:10:14;99880.38;;;23.22;53.67
56514;BME280;62152;52.078;8.414;2022-08-19T04:11:59;99883.19;;;23.14;53.94
56514;BME280;62152;52.078;8.414;2022-08-19T04:13:44;99879.59;;;23.17;53.96
56514;BME280;62152;52.078;8.414;2022-08-19T04:15:29;99884.25;;;23.28;53.63
56514;BME280;62152;52.078;8.414;2022-08-19T04:17:20;99878.19;;;23.40;53.26
56514;BME280;62152;52.078;8.414;2022-08-19T04:19:08;99881.66;;;23.51;53.13
56514;BME280;62152;52.078;8.414;2022-08-19T04:20:53;99882.44;;;23.52;53.13
56514;BME280;62152;52.078;8.414;2022-08-19T04:22:38;99877.31;;;23.50;53.11
56514;BME280;62152;52.078;8.414;2022-08-19T04:24:23;99870.94;;;23.53;53.17
56514;BME280;62152;52.078;8.414;2022-08-19T04:26:12;99870.59;;;23.51;53.33
56514;BME280;62152;52.078;8.414;2022-08-19T04:27:58;99865.41;;;23.57;53.15
56514;BME280;62152;52.078;8.414;2022-08-19T04:29:43;99870.88;;;23.60;53.10
56514;BME280;62152;52.078;8.414;2022-08-19T04:31:31;99864.97;;;23.62;53.08
56514;BME280;62152;52.078;8.414;2022-08-19T04:33:19;99868.47;;;23.66;53.08
56514;BME280;62152;52.078;8.414;2022-08-19T04:35:08;99866.50;;;23.66;53.09
56514;BME280;62152;52.078;8.414;2022-08-19T04:36:55;99868.06;;;23.67;52.93
56514;BME280;62152;52.078;8.414;2022-08-19T04:38:42;99866.50;;;23.66;52.93
56514;BME280;62152;52.078;8.414;2022-08-19T04:40:27;99876.38;;;23.67;53.03
56514;BME280;62152;52.078;8.414;2022-08-19T04:42:24;99865.72;;;23.66;53.06
56514;BME280;62152;52.078;8.414;2022-08-19T04:44:22;99870.06;;;23.67;53.07
56514;BME280;62152;52.078;8.414;2022-08-19T04:46:10;99873.59;;;23.67;53.17
56514;BME280;62152;52.078;8.414;2022-08-19T04:47:56;99870.84;;;23.67;53.06
56514;BME280;62152;52.078;8.414;2022-08-19T04:49:43;99874.78;;;23.70;53.07
56514;BME280;62152;52.078;8.414;2022-08-19T04:51:32;99876.34;;;23.71;52.91
56514;BME280;62152;52.078;8.414;2022-08-19T04:53:18;99879.53;;;23.69;53.03
56514;BME280;62152;52.078;8.414;2022-08-19T04:55:04;99875.97;;;23.69;52.92
56514;BME280;62152;52.078;8.414;2022-08-19T04:56:50;99887.06;;;23.65;53.00
56514;BME280;62152;52.078;8.414;2022-08-19T04:58:37;99875.19;;;23.68;53.04
56514;BME280;62152;52.078;8.414;2022-08-19T05:00:24;99881.53;;;23.69;53.12
56514;BME280;62152;52.078;8.414;2022-08-19T05:02:09;99879.94;;;23.68;53.08
56514;BME280;62152;52.078;8.414;2022-08-19T05:03:55;99886.66;;;23.67;52.93
56514;BME280;62152;52.078;8.414;2022-08-19T05:05:41;99887.44;;;23.67;53.08
56514;BME280;62152;52.078;8.414;2022-08-19T05:07:29;99887.84;;;23.69;53.16
56514;BME280;62152;52.078;8.414;2022-08-19T05:09:15;99886.28;;;23.68;53.10
56514;BME280;62152;52.078;8.414;2022-08-19T05:11:09;99893.38;;;23.69;53.14
56514;BME280;62152;52.078;8.414;2022-08-19T05:12:56;99892.19;;;23.70;52.88
56514;BME280;62152;52.078;8.414;2022-08-19T05:14:42;99888.63;;;23.70;53.00
56514;BME280;62152;52.078;8.414;2022-08-19T05:16:28;99890.28;;;23.64;53.14
56514;BME280;62152;52.078;8.414;2022-08-19T05:18:14;99902.50;;;23.66;53.21
56514;BME280;62152;52.078;8.414;2022-08-19T05:20:11;99894.94;;;23.70;53.16
56514;BME280;62152;52.078;8.414;2022-08-19T05:22:09;99898.50;;;23.71;53.32
56514;BME280;62152;52.078;8.414;2022-08-19T05:24:09;99904.03;;;23.71;53.05
56514;BME280;62152;52.078;8.414;2022-08-19T05:25:55;99900.91;;;23.69;53.09
56514;BME280;62152;52.078;8.414;2022-08-19T05:27:42;99894.59;;;23.65;53.10
56514;BME280;62152;52.078;8.414;2022-08-19T05:29:27;99901.34;;;23.64;53.09
56514;BME280;62152;52.078;8.414;2022-08-19T05:31:13;99889.47;;;23.63;53.19
56514;BME280;62152;52.078;8.414;2022-08-19T05:32:58;99888.41;;;23.50;53.59
56514;BME280;62152;52.078;8.414;2022-08-19T05:34:43;99885.28;;;23.44;53.63
56514;BME280;62152;52.078;8.414;2022-08-19T05:36:34;99874.19;;;23.48;53.75
56514;BME280;62152;52.078;8.414;2022-08-19T05:38:21;99875.69;;;23.56;53.44
56514;BME280;62152;52.078;8.414;2022-08-19T05:40:11;99876.50;;;23.53;53.40
56514;BME280;62152;52.078;8.414;2022-08-19T05:41:58;99880.44;;;23.56;53.52
56514;BME280;62152;52.078;8.414;2022-08-19T05:43:45;99882.03;;;23.53;53.54
56514;BME280;62152;52.078;8.414;2022-08-19T05:45:31;99875.38;;;23.47;53.63
56514;BME280;62152;52.078;8.414;2022-08-19T05:47:18;99870.63;;;23.47;53.66
56514;BME280;62152;52.078;8.414;2022-08-19T05:49:06;99875.38;;;23.47;53.65
56514;BME280;62152;52.078;8.414;2022-08-19T05:50:52;99872.56;;;23.54;53.32
56514;BME280;62152;52.078;8.414;2022-08-19T05:52:39;99868.25;;;23.46;53.64
56514;BME280;62152;52.078;8.414;2022-08-19T05:54:24;99864.25;;;23.54;53.59
56514;BME280;62152;52.078;8.414;2022-08-19T05:56:16;99870.16;;;23.56;53.52
56514;BME280;62152;52.078;8.414;2022-08-19T05:58:02;99864.19;;;23.58;53.47
56514;BME280;62152;52.078;8.414;2022-08-19T05:59:49;99868.91;;;23.64;53.18
56514;BME280;62152;52.078;8.414;2022-08-19T06:01:38;99868.94;;;23.57;53.14
56514;BME280;62152;52.078;8.414;2022-08-19T06:03:25;99874.84;;;23.59;53.32
56514;BME280;62152;52.078;8.414;2022-08-19T06:05:10;99863.47;;;23.50;53.42
56514;BME280;62152;52.078;8.414;2022-08-19T06:06:56;99872.56;;;23.54;53.28
56514;BME280;62152;52.078;8.414;2022-08-19T06:08:41;99861.22;;;23.41;53.81
56514;BME280;62152;52.078;8.414;2022-08-19T06:10:32;99868.31;;;23.39;53.58
56514;BME280;62152;52.078;8.414;2022-08-19T06:12:21;99867.44;;;23.49;53.57
56514;BME280;62152;52.078;8.414;2022-08-19T06:14:11;99858.78;;;23.47;53.37
56514;BME280;62152;52.078;8.414;2022-08-19T06:16:00;99857.31;;;23.35;53.71
56514;BME280;62152;52.078;8.414;2022-08-19T06:17:45;99855.63;;;23.45;53.63
56514;BME280;62152;52.078;8.414;2022-08-19T06:19:30;99853.63;;;23.45;53.46
56514;BME280;62152;52.078;8.414;2022-08-19T06:21:16;99864.69;;;23.49;53.36
56514;BME280;62152;52.078;8.414;2022-08-19T06:22:58;99859.16;;;23.49;53.50
56514;BME280;62152;52.078;8.414;2022-08-19T06:24:43;99863.13;;;23.48;53.50
56514;BME280;62152;52.078;8.414;2022-08-19T06:26:28;99867.44;;;23.49;53.28
56514;BME280;62152;52.078;8.414;2022-08-19T06:28:16;99864.44;;;23.33;53.77
56514;BME280;62152;52.078;8.414;2022-08-19T06:30:01;99868.91;;;23.19;54.06
56514;BME280;62152;52.078;8.414;2022-08-19T06:31:49;99865.34;;;23.19;54.30
56514;BME280;62152;52.078;8.414;2022-08-19T06:33:36;99866.81;;;23.31;53.99
56514;BME280;62152;52.078;8.414;2022-08-19T06:35:21;99873.00;;;23.45;53.44
56514;BME280;62152;52.078;8.414;2022-08-19T06:37:07;99874.91;;;23.56;53.09
56514;BME280;62152;52.078;8.414;2022-08-19T06:38:53;99860.28;;;23.55;53.21
56514;BME280;62152;52.078;8.414;2022-08-19T06:40:39;99862.56;;;23.60;53.26
56514;BME280;62152;52.078;8.414;2022-08-19T06:42:24;99865.34;;;23.64;53.10
56514;BME280;62152;52.078;8.414;2022-08-19T06:44:12;99868.91;;;23.64;53.21
56514;BME280;62152;52.078;8.414;2022-08-19T06:45:57;99877.56;;;23.66;53.06
56514;BME280;62152;52.078;8.414;2022-08-19T06:47:45;99875.63;;;23.60;53.31
56514;BME280;62152;52.078;8.414;2022-08-19T06:49:30;99887.91;;;23.62;53.23
56514;BME280;62152;52.078;8.414;2022-08-19T06:51:16;99883.09;;;23.66;53.30
56514;BME280;62152;52.078;8.414;2022-08-19T06:53:02;99882.31;;;23.69;52.94
56514;BME280;62152;52.078;8.414;2022-08-19T06:54:47;99889.13;;;23.61;53.29
56514;BME280;62152;52.078;8.414;2022-08-19T06:56:33;99887.06;;;23.65;53.42
56514;BME280;62152;52.078;8.414;2022-08-19T06:58:19;99895.75;;;23.67;53.39
56514;BME280;62152;52.078;8.414;2022-08-19T07:00:09;99886.28;;;23.68;53.33
56514;BME280;62152;52.078;8.414;2022-08-19T07:01:56;99889.41;;;23.70;53.17
56514;BME280;62152;52.078;8.414;2022-08-19T07:03:41;99891.34;;;23.73;53.09
56514;BME280;62152;52.078;8.414;2022-08-19T07:05:28;99892.53;;;23.72;53.29
56514;BME280;62152;52.078;8.414;2022-08-19T07:07:14;99896.50;;;23.71;53.16
56514;BME280;62152;52.078;8.414;2022-08-19T07:08:59;99898.47;;;23.74;53.21
56514;BME280;62152;52.078;8.414;2022-08-19T07:10:45;99899.69;;;23.70;53.41
56514;BME280;62152;52.078;8.414;2022-08-19T07:12:32;99911.63;;;23.60;53.61
56514;BME280;62152;52.078;8.414;2022-08-19T07:14:20;99910.88;;;23.56;53.49
56514;BME280;62152;52.078;8.414;2022-08-19T07:16:12;99904.50;;;23.59;53.70
56514;BME280;62152;52.078;8.414;2022-08-19T07:18:00;99913.63;;;23.63;53.58
56514;BME280;62152;52.078;8.414;2022-08-19T07:19:46;99912.47;;;23.57;53.62
56514;BME280;62152;52.078;8.414;2022-08-19T07:21:32;99911.66;;;23.56;53.77
56514;BME280;62152;52.078;8.414;2022-08-19T07:23:16;99910.06;;;23.59;53.68
56514;BME280;62152;52.078;8.414;2022-08-19T07:25:02;99908.53;;;23.54;53.83
56514;BME280;62152;52.078;8.414;2022-08-19T07:26:51;99904.50;;;23.59;53.58
56514;BME280;62152;52.078;8.414;2022-08-19T07:28:38;99903.84;;;23.47;54.06
56514;BME280;62152;52.078;8.414;2022-08-19T07:30:24;99906.94;;;23.53;53.93
56514;BME280;62152;52.078;8.414;2022-08-19T07:32:12;99898.56;;;23.60;53.96
56514;BME280;62152;52.078;8.414;2022-08-19T07:33:57;99904.91;;;23.64;53.71
56514;BME280;62152;52.078;8.414;2022-08-19T07:35:42;99902.88;;;23.68;53.38
56514;BME280;62152;52.078;8.414;2022-08-19T07:37:27;99910.78;;;23.66;53.58
56514;BME280;62152;52.078;8.414;2022-08-19T07:39:15;99924.31;;;23.57;53.84
56514;BME280;62152;52.078;8.414;2022-08-19T07:41:01;99930.69;;;23.54;54.02
56514;BME280;62152;52.078;8.414;2022-08-19T07:42:47;99931.44;;;23.62;53.67
56514;BME280;62152;52.078;8.414;2022-08-19T07:44:32;99931.75;;;23.67;53.57
56514;BME280;62152;52.078;8.414;2022-08-19T07:46:18;99934.50;;;23.67;53.44
56514;BME280;62152;52.078;8.414;2022-08-19T07:48:06;99936.91;;;23.65;53.95
56514;BME280;62152;52.078;8.414;2022-08-19T07:49:52;99932.56;;;23.64;53.60
56514;BME280;62152;52.078;8.414;2022-08-19T07:51:37;99935.28;;;23.71;53.63
56514;BME280;62152;52.078;8.414;2022-08-19T07:53:22;99936.47;;;23.70;53.61
56514;BME280;62152;52.078;8.414;2022-08-19T07:55:10;99939.69;;;23.65;53.78
56514;BME280;62152;52.078;8.414;2022-08-19T07:56:56;99937.69;;;23.66;53.76
56514;BME280;62152;52.078;8.414;2022-08-19T07:58:44;99940.81;;;23.71;53.68
56514;BME280;62152;52.078;8.414;2022-08-19T08:00:31;99932.09;;;23.73;53.68
56514;BME280;62152;52.078;8.414;2022-08-19T08:02:17;99942.44;;;23.65;53.86
56514;BME280;62152;52.078;8.414;2022-08-19T08:04:04;99941.72;;;23.61;54.06
56514;BME280;62152;52.078;8.414;2022-08-19T08:06:01;99948.41;;;23.64;53.93
56514;BME280;62152;52.078;8.414;2022-08-19T08:07:59;99951.53;;;23.69;53.72
56514;BME280;62152;52.078;8.414;2022-08-19T08:09:56;99962.56;;;23.73;53.83
56514;BME280;62152;52.078;8.414;2022-08-19T08:11:46;99957.00;;;23.73;53.85
56514;BME280;62152;52.078;8.414;2022-08-19T08:13:33;99957.06;;;23.69;53.84
56514;BME280;62152;52.078;8.414;2022-08-19T08:15:18;99963.03;;;23.64;53.90
56514;BME280;62152;52.078;8.414;2022-08-19T08:17:05;99954.28;;;23.69;54.03
56514;BME280;62152;52.078;8.414;2022-08-19T08:18:51;99963.34;;;23.73;53.83
56514;BME280;62152;52.078;8.414;2022-08-19T08:20:39;99964.88;;;23.78;53.61
56514;BME280;62152;52.078;8.414;2022-08-19T08:22:24;99969.22;;;23.79;53.69
56514;BME280;62152;52.078;8.414;2022-08-19T08:24:23;99966.44;;;23.79;53.53
56514;BME280;62152;52.078;8.414;2022-08-19T08:26:09;99962.09;;;23.82;53.39
56514;BME280;62152;52.078;8.414;2022-08-19T08:27:54;99965.66;;;23.79;53.71
56514;BME280;62152;52.078;8.414;2022-08-19T08:29:41;99960.50;;;23.81;53.49
56514;BME280;62152;52.078;8.414;2022-08-19T08:31:26;99959.00;;;23.72;53.84
56514;BME280;62152;52.078;8.414;2022-08-19T08:33:12;99963.81;;;23.68;54.07
56514;BME280;62152;52.078;8.414;2022-08-19T08:34:57;99962.16;;;23.74;53.73
56514;BME280;62152;52.078;8.414;2022-08-19T08:36:46;99951.47;;;23.77;53.62
56514;BME280;62152;52.078;8.414;2022-08-19T08:38:34;99951.41;;;23.80;53.62
56514;BME280;62152;52.078;8.414;2022-08-19T08:40:23;99946.25;;;23.82;53.47
56514;BME280;62152;52.078;8.414;2022-08-19T08:42:20;99947.78;;;23.87;53.30
56514;BME280;62152;52.078;8.414;2022-08-19T08:44:16;99956.09;;;23.87;53.30
56514;BME280;62152;52.078;8.414;2022-08-19T08:46:06;99955.34;;;23.83;53.47
56514;BME280;62152;52.078;8.414;2022-08-19T08:48:03;99951.34;;;23.87;53.38
56514;BME280;62152;52.078;8.414;2022-08-19T08:50:03;99960.84;;;23.86;53.46
56514;BME280;62152;52.078;8.414;2022-08-19T08:51:59;99961.25;;;23.85;53.17
56514;BME280;62152;52.078;8.414;2022-08-19T08:53:50;99953.38;;;23.80;53.50
56514;BME280;62152;52.078;8.414;2022-08-19T08:55:36;99963.25;;;23.81;53.27
56514;BME280;62152;52.078;8.414;2022-08-19T08:57:27;99964.88;;;23.82;53.29
56514;BME280;62152;52.078;8.414;2022-08-19T08:59:23;99964.88;;;23.82;52.94
56514;BME280;62152;52.078;8.414;2022-08-19T09:01:14;99966.00;;;23.84;52.74
56514;BME280;62152;52.078;8.414;2022-08-19T09:03:02;99954.09;;;23.87;52.96
56514;BME280;62152;52.078;8.414;2022-08-19T09:04:50;99961.97;;;23.92;52.74
56514;BME280;62152;52.078;8.414;2022-08-19T09:06:42;99961.94;;;23.96;52.72
56514;BME280;62152;52.078;8.414;2022-08-19T09:08:48;99962.75;;;23.93;52.72
56514;BME280;62152;52.078;8.414;2022-08-19T09:10:49;99961.94;;;23.96;52.52
56514;BME280;62152;52.078;8.414;2022-08-19T09:12:48;99959.53;;;23.98;52.48
56514;BME280;62152;52.078;8.414;2022-08-19T09:14:49;99958.34;;;23.99;52.68
56514;BME280;62152;52.078;8.414;2022-08-19T09:16:38;99948.81;;;24.00;52.41
56514;BME280;62152;52.078;8.414;2022-08-19T09:18:25;99955.56;;;23.99;52.60
56514;BME280;62152;52.078;8.414;2022-08-19T09:20:17;99962.69;;;24.00;52.54
56514;BME280;62152;52.078;8.414;2022-08-19T09:22:04;99954.75;;;24.02;52.28
56514;BME280;62152;52.078;8.414;2022-08-19T09:23:53;99949.25;;;23.98;52.42
56514;BME280;62152;52.078;8.414;2022-08-19T09:25:39;99956.72;;;24.01;52.50
56514;BME280;62152;52.078;8.414;2022-08-19T09:27:27;99963.84;;;24.02;52.35
56514;BME280;62152;52.078;8.414;2022-08-19T09:29:14;99951.59;;;24.00;52.25